Time;durP1;ratioP1;P1;durP2;ratioP2;P2;SDS_P1;SDS_P2;PMS_P1;PMS_P2;Temp;Humidity;BMP_temperature;BMP_pressure;BME280_temperature;BME280_humidity;BME280_pressure;Samples;Min_cycle;Max_cycle;Signal;HPM_P1;HPM_P2
2020/12/28 00:02:08;;;;;;;13.07;10.82;;;;;;;;;;5065206;28;20751;-80
2020/12/28 00:04:34;;;;;;;13.20;11.03;;;;;;;;;;5065775;28;20867;-80
2020/12/28 00:07:00;;;;;;;13.85;11.02;;;;;;;;;;5065027;28;20418;-80
2020/12/28 00:09:26;;;;;;;13.05;10.63;;;;;;;;;;5064418;28;20976;-81
2020/12/28 00:11:56;;;;;;;13.27;10.82;;;;;;;;;;5043142;28;20392;-80
2020/12/28 00:14:23;;;;;;;13.55;11.02;;;;;;;;;;5046205;28;20461;-80
2020/12/28 00:16:49;;;;;;;14.32;11.70;;;;;;;;;;5046410;28;20446;-80
2020/12/28 00:19:15;;;;;;;14.07;11.23;;;;;;;;;;5065673;28;20388;-80
2020/12/28 00:21:41;;;;;;;13.63;11.68;;;;;;;;;;5037103;28;20392;-80
2020/12/28 00:24:07;;;;;;;13.98;11.98;;;;;;;;;;5063462;28;20375;-80
2020/12/28 00:26:37;;;;;;;16.07;12.83;;;;;;;;;;5045853;28;20979;-80
2020/12/28 00:29:04;;;;;;;20.50;14.67;;;;;;;;;;5047760;28;20473;-80
2020/12/28 00:31:30;;;;;;;17.30;13.38;;;;;;;;;;5047055;28;20879;-80
2020/12/28 00:33:56;;;;;;;16.45;13.32;;;;;;;;;;5065687;28;20390;-80
2020/12/28 00:36:22;;;;;;;16.35;13.00;;;;;;;;;;5045284;28;20958;-80
2020/12/28 00:38:48;;;;;;;14.80;12.73;;;;;;;;;;5033548;28;20383;-80
2020/12/28 00:41:14;;;;;;;15.07;12.93;;;;;;;;;;5066028;28;20376;-80
2020/12/28 00:43:40;;;;;;;15.70;13.25;;;;;;;;;;5042260;28;20867;-80
2020/12/28 00:46:07;;;;;;;16.42;13.20;;;;;;;;;;5045703;28;20894;-80
2020/12/28 00:48:34;;;;;;;13.87;11.70;;;;;;;;;;5064417;28;20438;-80
2020/12/28 00:51:00;;;;;;;13.45;11.38;;;;;;;;;;5047540;28;20383;-80
2020/12/28 00:53:26;;;;;;;12.98;10.75;;;;;;;;;;5046503;28;20473;-80
2020/12/28 00:55:52;;;;;;;12.88;10.50;;;;;;;;;;5062009;28;20415;-80
2020/12/28 00:58:18;;;;;;;12.20;10.68;;;;;;;;;;5046664;28;20400;-80
2020/12/28 01:00:44;;;;;;;13.88;11.52;;;;;;;;;;5057512;28;20372;-80
2020/12/28 01:03:10;;;;;;;14.07;11.03;;;;;;;;;;5064116;28;20399;-80
2020/12/28 01:05:36;;;;;;;13.10;10.70;;;;;;;;;;5063981;28;20398;-80
2020/12/28 01:08:02;;;;;;;13.75;11.40;;;;;;;;;;5047725;28;20634;-80
2020/12/28 01:10:28;;;;;;;14.82;12.27;;;;;;;;;;5051280;28;20391;-80
2020/12/28 01:12:54;;;;;;;14.52;12.15;;;;;;;;;;5050694;28;20408;-80
2020/12/28 01:15:20;;;;;;;14.50;11.93;;;;;;;;;;5068610;28;20501;-80
2020/12/28 01:17:45;;;;;;;13.10;11.48;;;;;;;;;;5067768;28;20820;-80
2020/12/28 01:20:11;;;;;;;14.32;12.50;;;;;;;;;;5050146;28;20392;-80
2020/12/28 01:22:37;;;;;;;13.57;11.70;;;;;;;;;;5052098;28;20397;-81
2020/12/28 01:25:04;;;;;;;16.13;12.73;;;;;;;;;;5058601;28;20407;-80
2020/12/28 01:27:30;;;;;;;14.57;12.45;;;;;;;;;;5049316;28;20414;-81
2020/12/28 01:29:56;;;;;;;14.60;12.88;;;;;;;;;;5069371;28;20387;-81
2020/12/28 01:32:22;;;;;;;18.08;14.35;;;;;;;;;;5063589;28;20885;-81
2020/12/28 01:34:48;;;;;;;19.17;14.80;;;;;;;;;;5068865;28;20415;-80
2020/12/28 01:37:14;;;;;;;18.23;15.33;;;;;;;;;;5048698;28;20515;-81
2020/12/28 01:39:40;;;;;;;19.98;16.30;;;;;;;;;;5068837;28;20390;-80
2020/12/28 01:42:07;;;;;;;20.33;16.63;;;;;;;;;;5064820;28;20378;-80
2020/12/28 01:44:33;;;;;;;19.45;16.27;;;;;;;;;;5051824;28;20431;-80
2020/12/28 01:46:59;;;;;;;21.98;16.70;;;;;;;;;;5078408;28;20810;-80
2020/12/28 01:49:25;;;;;;;24.05;17.83;;;;;;;;;;5084097;28;20597;-80
2020/12/28 01:51:51;;;;;;;22.48;18.35;;;;;;;;;;5062431;28;21204;-80
2020/12/28 01:54:18;;;;;;;22.70;18.55;;;;;;;;;;5068472;28;20406;-80
2020/12/28 01:56:44;;;;;;;24.23;18.97;;;;;;;;;;5064927;28;20376;-80
2020/12/28 01:59:09;;;;;;;23.23;18.48;;;;;;;;;;5076883;28;20844;-80
2020/12/28 02:01:39;;;;;;;23.73;18.58;;;;;;;;;;5073632;28;20379;-81
2020/12/28 02:04:05;;;;;;;24.38;18.27;;;;;;;;;;5067186;28;20405;-80
2020/12/28 02:06:31;;;;;;;21.60;17.90;;;;;;;;;;5067737;28;20759;-80
2020/12/28 02:08:57;;;;;;;21.23;17.42;;;;;;;;;;5055409;28;20487;-80
2020/12/28 02:11:23;;;;;;;24.17;18.43;;;;;;;;;;5059007;28;20714;-80
2020/12/28 02:13:49;;;;;;;23.00;17.95;;;;;;;;;;5055478;28;20451;-80
2020/12/28 02:16:15;;;;;;;20.13;17.58;;;;;;;;;;5054920;28;20382;-80
2020/12/28 02:18:41;;;;;;;21.75;18.17;;;;;;;;;;5082616;28;20766;-80
2020/12/28 02:21:07;;;;;;;21.55;17.20;;;;;;;;;;5056498;28;20380;-80
2020/12/28 02:23:33;;;;;;;21.73;17.50;;;;;;;;;;5088999;28;20412;-80
2020/12/28 02:25:59;;;;;;;23.48;18.65;;;;;;;;;;5071810;28;20382;-80
2020/12/28 02:28:25;;;;;;;23.73;18.48;;;;;;;;;;5057354;28;20960;-80
2020/12/28 02:30:51;;;;;;;24.65;18.45;;;;;;;;;;5064578;28;20445;-80
2020/12/28 02:33:17;;;;;;;22.35;18.13;;;;;;;;;;5054661;28;20855;-80
2020/12/28 02:35:43;;;;;;;22.55;17.83;;;;;;;;;;5072800;28;20411;-80
2020/12/28 02:38:09;;;;;;;23.27;17.77;;;;;;;;;;5056125;28;20417;-81
2020/12/28 02:40:35;;;;;;;21.45;17.83;;;;;;;;;;5072761;28;20403;-80
2020/12/28 02:43:01;;;;;;;20.73;17.38;;;;;;;;;;5055144;28;20511;-80
2020/12/28 02:45:27;;;;;;;22.60;17.48;;;;;;;;;;5073646;28;21006;-81
2020/12/28 02:47:53;;;;;;;21.40;17.05;;;;;;;;;;5081196;28;20530;-80
2020/12/28 02:50:19;;;;;;;21.50;17.70;;;;;;;;;;5054513;28;20436;-80
2020/12/28 02:52:45;;;;;;;20.52;17.17;;;;;;;;;;5072060;28;20878;-80
2020/12/28 02:55:12;;;;;;;18.98;16.73;;;;;;;;;;5052799;28;20506;-81
2020/12/28 02:57:38;;;;;;;21.38;17.55;;;;;;;;;;5054383;28;20449;-81
2020/12/28 03:00:04;;;;;;;21.52;17.67;;;;;;;;;;5054287;28;20388;-80
2020/12/28 03:02:30;;;;;;;21.13;17.35;;;;;;;;;;5054402;28;20886;-81
2020/12/28 03:04:56;;;;;;;21.55;18.27;;;;;;;;;;5071935;28;20478;-80
2020/12/28 03:07:22;;;;;;;20.55;17.23;;;;;;;;;;5071989;28;20426;-80
2020/12/28 03:09:48;;;;;;;23.23;18.83;;;;;;;;;;5087996;28;20426;-80
2020/12/28 03:12:14;;;;;;;22.20;17.67;;;;;;;;;;5076873;28;20364;-80
2020/12/28 03:14:40;;;;;;;21.58;18.17;;;;;;;;;;5056339;28;20414;-80
2020/12/28 03:17:06;;;;;;;21.67;18.80;;;;;;;;;;5079588;28;20398;-80
2020/12/28 03:19:32;;;;;;;23.40;19.08;;;;;;;;;;5053321;28;20403;-80
2020/12/28 03:21:58;;;;;;;23.88;19.77;;;;;;;;;;5074841;28;21075;-81
2020/12/28 03:24:24;;;;;;;23.83;19.63;;;;;;;;;;5051701;28;20977;-80
2020/12/28 03:26:50;;;;;;;25.60;19.70;;;;;;;;;;5053861;28;20463;-81
2020/12/28 03:29:16;;;;;;;25.40;20.15;;;;;;;;;;5052965;28;20402;-81
2020/12/28 03:31:42;;;;;;;24.50;19.58;;;;;;;;;;5053653;28;20728;-80
2020/12/28 03:34:09;;;;;;;23.30;19.92;;;;;;;;;;5052800;28;20465;-80
2020/12/28 03:36:35;;;;;;;22.55;18.30;;;;;;;;;;5052925;28;20874;-81
2020/12/28 03:39:01;;;;;;;24.00;19.48;;;;;;;;;;5053163;28;20500;-80
2020/12/28 03:41:27;;;;;;;28.40;20.42;;;;;;;;;;5053775;28;20426;-80
2020/12/28 03:43:53;;;;;;;26.50;20.50;;;;;;;;;;5071049;28;20477;-80
2020/12/28 03:46:19;;;;;;;26.40;21.33;;;;;;;;;;5053431;28;20403;-80
2020/12/28 03:48:45;;;;;;;26.88;21.58;;;;;;;;;;5053163;28;20438;-81
2020/12/28 03:51:11;;;;;;;23.90;20.35;;;;;;;;;;5052210;28;20491;-81
2020/12/28 03:53:37;;;;;;;27.03;21.70;;;;;;;;;;5051011;28;20412;-80
2020/12/28 03:56:03;;;;;;;26.73;21.98;;;;;;;;;;5051994;28;20421;-80
2020/12/28 03:58:29;;;;;;;25.52;21.27;;;;;;;;;;5071292;28;20407;-80
2020/12/28 04:00:55;;;;;;;25.13;20.92;;;;;;;;;;5079619;28;20384;-80
2020/12/28 04:03:21;;;;;;;28.40;21.10;;;;;;;;;;5053342;28;20458;-80
2020/12/28 04:05:47;;;;;;;25.92;20.85;;;;;;;;;;5055200;28;20401;-80
2020/12/28 04:08:13;;;;;;;24.27;21.15;;;;;;;;;;5077939;28;20398;-80
2020/12/28 04:10:38;;;;;;;26.73;21.40;;;;;;;;;;5070943;28;20423;-81
2020/12/28 04:13:05;;;;;;;25.48;21.17;;;;;;;;;;5070901;28;20425;-81
2020/12/28 04:15:30;;;;;;;24.40;20.35;;;;;;;;;;5059468;28;20400;-80
2020/12/28 04:17:56;;;;;;;25.80;20.75;;;;;;;;;;5077672;28;20764;-80
2020/12/28 04:20:22;;;;;;;24.80;20.63;;;;;;;;;;5060774;28;20786;-80
2020/12/28 04:22:48;;;;;;;24.25;20.98;;;;;;;;;;5055476;28;20413;-81
2020/12/28 04:25:15;;;;;;;25.17;20.50;;;;;;;;;;5047167;28;20431;-80
2020/12/28 04:27:41;;;;;;;22.75;19.85;;;;;;;;;;5070806;28;20576;-80
2020/12/28 04:30:07;;;;;;;22.42;19.70;;;;;;;;;;5052314;28;20453;-81
2020/12/28 04:32:33;;;;;;;24.90;19.90;;;;;;;;;;5053211;28;20388;-80
2020/12/28 04:34:59;;;;;;;22.83;19.48;;;;;;;;;;5058592;28;20804;-80
2020/12/28 04:37:25;;;;;;;23.90;19.38;;;;;;;;;;5078953;28;20520;-81
2020/12/28 04:39:51;;;;;;;23.10;18.92;;;;;;;;;;5069888;28;20403;-81
2020/12/28 04:42:30;;;;;;;20.90;18.10;;;;;;;;;;5059317;28;20843;-80
2020/12/28 04:44:56;;;;;;;22.83;18.77;;;;;;;;;;5057609;28;20397;-80
2020/12/28 04:47:23;;;;;;;21.65;18.75;;;;;;;;;;5075448;28;20400;-80
2020/12/28 04:49:49;;;;;;;24.00;18.92;;;;;;;;;;5056291;28;20412;-81
2020/12/28 04:52:15;;;;;;;23.40;19.05;;;;;;;;;;5056203;28;20419;-80
2020/12/28 04:54:42;;;;;;;23.30;17.85;;;;;;;;;;5055431;28;20414;-80
2020/12/28 04:57:08;;;;;;;22.83;18.23;;;;;;;;;;5074626;28;20457;-80
2020/12/28 04:59:34;;;;;;;23.45;18.23;;;;;;;;;;5074500;28;20396;-80
2020/12/28 05:02:00;;;;;;;22.33;18.25;;;;;;;;;;5074607;28;20720;-80
2020/12/28 05:04:26;;;;;;;23.23;18.50;;;;;;;;;;5056421;28;20470;-80
2020/12/28 05:07:04;;;;;;;21.50;18.05;;;;;;;;;;5087220;28;20467;-80
2020/12/28 05:09:30;;;;;;;23.48;18.75;;;;;;;;;;5061222;28;20384;-81
2020/12/28 05:11:56;;;;;;;24.27;18.13;;;;;;;;;;5061558;28;20891;-81
2020/12/28 05:14:23;;;;;;;22.13;17.90;;;;;;;;;;5058568;28;20409;-80
2020/12/28 05:16:49;;;;;;;23.48;18.13;;;;;;;;;;5079240;28;20703;-81
2020/12/28 05:19:18;;;;;;;22.57;17.57;;;;;;;;;;5088648;28;20422;-80
2020/12/28 05:21:44;;;;;;;21.40;17.73;;;;;;;;;;5056560;28;20513;-80
2020/12/28 05:24:16;;;;;;;22.27;17.83;;;;;;;;;;5073981;28;20380;-80
2020/12/28 05:26:43;;;;;;;21.63;17.73;;;;;;;;;;5083484;28;20433;-80
2020/12/28 05:29:30;;;;;;;22.33;17.38;;;;;;;;;;5082260;28;20378;-80
2020/12/28 05:31:56;;;;;;;25.00;18.00;;;;;;;;;;5058963;28;20394;-80
2020/12/28 05:34:26;;;;;;;23.65;17.25;;;;;;;;;;5072405;28;20468;-80
2020/12/28 05:36:56;;;;;;;24.85;17.50;;;;;;;;;;5061433;28;20578;-80
2020/12/28 05:39:23;;;;;;;23.60;17.13;;;;;;;;;;5059242;28;20887;-80
2020/12/28 05:42:07;;;;;;;22.17;16.90;;;;;;;;;;5076550;28;20906;-80
2020/12/28 05:44:33;;;;;;;22.33;16.53;;;;;;;;;;5056106;28;20487;-80
2020/12/28 05:47:06;;;;;;;23.30;16.88;;;;;;;;;;5073561;28;20414;-80
2020/12/28 05:49:37;;;;;;;23.52;17.40;;;;;;;;;;5065108;28;20884;-80
2020/12/28 05:52:03;;;;;;;23.92;17.65;;;;;;;;;;5047878;28;20997;-80
2020/12/28 05:54:30;;;;;;;23.35;17.40;;;;;;;;;;5061113;28;20415;-80
2020/12/28 05:56:56;;;;;;;21.70;16.60;;;;;;;;;;5055543;28;20491;-80
2020/12/28 05:59:22;;;;;;;24.10;16.08;;;;;;;;;;5058815;28;21108;-80
2020/12/28 06:01:49;;;;;;;22.90;15.73;;;;;;;;;;5080189;28;20431;-80
2020/12/28 06:04:16;;;;;;;21.65;14.98;;;;;;;;;;5072619;28;20501;-80
2020/12/28 06:06:42;;;;;;;21.97;14.90;;;;;;;;;;5076677;28;20482;-80
2020/12/28 06:09:09;;;;;;;18.58;13.82;;;;;;;;;;5055276;28;20384;-80
2020/12/28 06:11:35;;;;;;;22.48;14.65;;;;;;;;;;5073029;28;20863;-80
2020/12/28 06:14:12;;;;;;;23.48;14.52;;;;;;;;;;5054981;28;20396;-80
2020/12/28 06:16:38;;;;;;;19.88;14.20;;;;;;;;;;5064039;28;20819;-80
2020/12/28 06:19:04;;;;;;;20.93;14.30;;;;;;;;;;5042589;28;20381;-80
2020/12/28 06:21:39;;;;;;;19.63;13.90;;;;;;;;;;5063374;28;20913;-80
2020/12/28 06:24:05;;;;;;;23.00;14.55;;;;;;;;;;5071135;28;20407;-80
2020/12/28 06:26:31;;;;;;;19.10;14.23;;;;;;;;;;5053442;28;20403;-80
2020/12/28 06:29:06;;;;;;;22.13;14.50;;;;;;;;;;5055298;28;20851;-80
2020/12/28 06:31:33;;;;;;;21.70;14.20;;;;;;;;;;5055078;28;20433;-80
2020/12/28 06:33:59;;;;;;;20.02;14.35;;;;;;;;;;5060469;28;20398;-80
2020/12/28 06:36:25;;;;;;;24.70;14.38;;;;;;;;;;5037737;28;20496;-80
2020/12/28 06:38:57;;;;;;;18.40;13.18;;;;;;;;;;5068801;28;20368;-80
2020/12/28 06:41:30;;;;;;;20.33;14.43;;;;;;;;;;5086107;28;20382;-80
2020/12/28 06:44:01;;;;;;;19.67;13.87;;;;;;;;;;5064458;28;20413;-80
2020/12/28 06:46:27;;;;;;;21.67;13.95;;;;;;;;;;5049680;28;20718;-80
2020/12/28 06:48:53;;;;;;;17.50;12.63;;;;;;;;;;5049694;28;20469;-80
2020/12/28 06:51:22;;;;;;;19.08;13.68;;;;;;;;;;5050129;28;20391;-80
2020/12/28 06:53:55;;;;;;;20.60;13.48;;;;;;;;;;5055828;28;20432;-80
2020/12/28 06:56:25;;;;;;;20.85;12.93;;;;;;;;;;5053949;28;20400;-81
2020/12/28 06:59:01;;;;;;;19.30;12.95;;;;;;;;;;5054277;28;20803;-80
2020/12/28 07:01:27;;;;;;;19.10;12.63;;;;;;;;;;5054648;28;20380;-80
2020/12/28 07:03:53;;;;;;;18.60;12.32;;;;;;;;;;5053537;28;20455;-80
2020/12/28 07:06:20;;;;;;;22.45;13.20;;;;;;;;;;5080753;28;20455;-80
2020/12/28 07:08:46;;;;;;;18.50;12.77;;;;;;;;;;5055082;28;20407;-80
2020/12/28 07:11:18;;;;;;;22.83;13.43;;;;;;;;;;5054166;28;20509;-80
2020/12/28 07:13:44;;;;;;;20.10;12.23;;;;;;;;;;5054413;28;20834;-80
2020/12/28 07:16:10;;;;;;;22.52;13.00;;;;;;;;;;5053880;28;20494;-80
2020/12/28 07:18:36;;;;;;;20.85;12.30;;;;;;;;;;5053807;28;20396;-80
2020/12/28 07:21:03;;;;;;;18.83;12.68;;;;;;;;;;5053916;28;20412;-80
2020/12/28 07:23:30;;;;;;;17.95;12.13;;;;;;;;;;5053826;28;20403;-80
2020/12/28 07:26:12;;;;;;;18.60;12.10;;;;;;;;;;5053467;28;20389;-80
2020/12/28 07:28:39;;;;;;;20.77;12.30;;;;;;;;;;5046627;28;20394;-80
2020/12/28 07:31:06;;;;;;;22.23;12.13;;;;;;;;;;5061050;28;20731;-80
2020/12/28 07:33:32;;;;;;;22.92;11.98;;;;;;;;;;5045969;28;20505;-80
2020/12/28 07:36:03;;;;;;;19.98;11.73;;;;;;;;;;5053798;28;20443;-80
2020/12/28 07:38:29;;;;;;;21.30;13.00;;;;;;;;;;5081949;28;20436;-80
2020/12/28 07:40:55;;;;;;;19.77;12.55;;;;;;;;;;5063039;28;20430;-80
2020/12/28 07:43:21;;;;;;;20.45;11.52;;;;;;;;;;5052773;28;20430;-80
2020/12/28 07:45:51;;;;;;;19.77;11.97;;;;;;;;;;5053843;28;20477;-80
2020/12/28 07:48:19;;;;;;;20.58;12.05;;;;;;;;;;5053376;28;20396;-80
2020/12/28 07:50:48;;;;;;;19.67;12.13;;;;;;;;;;5048235;28;20391;-80
2020/12/28 07:53:16;;;;;;;22.27;12.77;;;;;;;;;;5049577;28;20457;-80
2020/12/28 07:55:45;;;;;;;21.40;13.18;;;;;;;;;;5069431;28;20407;-80
2020/12/28 07:58:22;;;;;;;19.50;12.45;;;;;;;;;;5052479;28;20399;-80
2020/12/28 08:00:48;;;;;;;21.10;12.68;;;;;;;;;;5071069;28;20391;-80
2020/12/28 08:03:29;;;;;;;19.85;12.30;;;;;;;;;;5076266;28;20427;-79
2020/12/28 08:05:59;;;;;;;20.73;13.15;;;;;;;;;;5056602;28;20389;-80
2020/12/28 08:08:26;;;;;;;20.80;13.10;;;;;;;;;;5052948;28;20398;-80
2020/12/28 08:11:01;;;;;;;21.92;13.70;;;;;;;;;;5056325;28;21098;-80
2020/12/28 08:13:31;;;;;;;25.17;15.25;;;;;;;;;;5065204;28;20481;-80
2020/12/28 08:16:16;;;;;;;24.80;15.55;;;;;;;;;;5058269;28;20405;-80
2020/12/28 08:18:49;;;;;;;24.05;15.45;;;;;;;;;;5050249;28;20405;-80
2020/12/28 08:21:16;;;;;;;22.38;14.75;;;;;;;;;;5052572;28;20911;-80
2020/12/28 08:23:49;;;;;;;21.63;14.85;;;;;;;;;;5070718;28;20387;-80
2020/12/28 08:26:16;;;;;;;22.42;13.90;;;;;;;;;;5088266;28;21018;-80
2020/12/28 08:28:45;;;;;;;21.45;13.45;;;;;;;;;;5061028;28;20395;-80
2020/12/28 08:31:11;;;;;;;21.97;13.87;;;;;;;;;;5052880;28;20471;-80
2020/12/28 08:33:37;;;;;;;23.10;13.88;;;;;;;;;;5049365;28;20460;-80
2020/12/28 08:36:03;;;;;;;23.35;12.65;;;;;;;;;;5062472;28;20399;-80
2020/12/28 08:38:32;;;;;;;21.42;13.70;;;;;;;;;;5069926;28;20863;-80
2020/12/28 08:40:58;;;;;;;22.60;13.32;;;;;;;;;;5070912;28;20372;-80
2020/12/28 08:43:24;;;;;;;18.27;12.27;;;;;;;;;;5082696;28;20427;-80
2020/12/28 08:46:00;;;;;;;19.50;12.50;;;;;;;;;;5058755;28;20422;-80
2020/12/28 08:48:26;;;;;;;22.63;14.40;;;;;;;;;;5051762;28;20403;-80
2020/12/28 08:50:52;;;;;;;18.73;13.85;;;;;;;;;;5070525;28;20762;-80
2020/12/28 08:53:22;;;;;;;22.23;13.93;;;;;;;;;;5052493;28;20888;-80
2020/12/28 08:55:57;;;;;;;20.80;12.93;;;;;;;;;;5043485;28;20408;-80
2020/12/28 08:58:23;;;;;;;20.83;12.23;;;;;;;;;;5052240;28;20403;-80
2020/12/28 09:00:49;;;;;;;19.60;12.07;;;;;;;;;;5054987;28;20468;-80
2020/12/28 09:03:15;;;;;;;18.65;12.30;;;;;;;;;;5078503;28;20379;-80
2020/12/28 09:05:40;;;;;;;25.50;11.77;;;;;;;;;;5050292;28;20407;-80
2020/12/28 09:08:06;;;;;;;20.52;11.23;;;;;;;;;;5048178;28;20496;-80
2020/12/28 09:10:32;;;;;;;22.65;11.00;;;;;;;;;;5062575;28;20406;-80
2020/12/28 09:12:58;;;;;;;22.77;11.80;;;;;;;;;;5070080;28;20396;-80
2020/12/28 09:15:24;;;;;;;20.58;12.00;;;;;;;;;;5064151;28;20498;-80
2020/12/28 09:17:50;;;;;;;21.33;13.13;;;;;;;;;;5050954;28;20391;-80
2020/12/28 09:20:16;;;;;;;17.13;11.90;;;;;;;;;;5067574;28;20453;-81
2020/12/28 09:22:42;;;;;;;18.83;12.63;;;;;;;;;;5049459;28;20408;-80
2020/12/28 09:25:08;;;;;;;21.43;13.03;;;;;;;;;;5040947;28;20407;-79
2020/12/28 09:27:34;;;;;;;19.42;12.40;;;;;;;;;;5070596;28;20407;-79
2020/12/28 09:30:06;;;;;;;20.33;13.23;;;;;;;;;;5074399;28;20543;-80
2020/12/28 09:32:32;;;;;;;18.23;13.23;;;;;;;;;;5059151;28;20447;-80
2020/12/28 09:34:58;;;;;;;20.63;13.23;;;;;;;;;;5059571;28;20403;-80
2020/12/28 09:37:24;;;;;;;19.58;12.75;;;;;;;;;;5075280;28;20724;-80
2020/12/28 09:39:50;;;;;;;19.48;13.48;;;;;;;;;;5055768;28;20466;-80
2020/12/28 09:42:16;;;;;;;19.88;13.68;;;;;;;;;;5048325;28;20407;-80
2020/12/28 09:44:42;;;;;;;20.77;13.27;;;;;;;;;;5049323;28;20465;-80
2020/12/28 09:47:08;;;;;;;21.50;13.20;;;;;;;;;;5049196;28;20470;-80
2020/12/28 09:49:34;;;;;;;18.58;12.98;;;;;;;;;;5050337;28;20392;-80
2020/12/28 09:52:00;;;;;;;19.27;13.20;;;;;;;;;;5050806;28;20401;-79
2020/12/28 09:54:26;;;;;;;21.30;12.30;;;;;;;;;;5064834;28;20442;-80
2020/12/28 09:56:53;;;;;;;21.35;12.63;;;;;;;;;;5062808;28;20472;-82
2020/12/28 09:59:19;;;;;;;19.27;13.30;;;;;;;;;;5070346;28;20459;-79
2020/12/28 10:01:51;;;;;;;19.55;12.75;;;;;;;;;;5046868;28;20486;-79
2020/12/28 10:04:17;;;;;;;21.52;13.70;;;;;;;;;;5076031;28;20405;-79
2020/12/28 10:06:43;;;;;;;19.23;13.55;;;;;;;;;;5070509;28;20403;-79
2020/12/28 10:09:10;;;;;;;20.10;14.15;;;;;;;;;;5058271;28;20370;-79
2020/12/28 10:11:36;;;;;;;22.00;15.10;;;;;;;;;;5057907;28;20416;-79
2020/12/28 10:14:06;;;;;;;18.88;14.27;;;;;;;;;;5066059;28;20422;-79
2020/12/28 10:16:32;;;;;;;18.60;13.30;;;;;;;;;;5046763;28;20397;-80
2020/12/28 10:18:58;;;;;;;17.85;13.15;;;;;;;;;;5069913;28;20395;-79
2020/12/28 10:21:25;;;;;;;19.87;14.53;;;;;;;;;;5066865;28;20453;-80
2020/12/28 10:23:51;;;;;;;18.93;14.10;;;;;;;;;;5080994;28;20461;-80
2020/12/28 10:26:21;;;;;;;21.25;14.18;;;;;;;;;;5052382;28;20747;-80
2020/12/28 10:28:48;;;;;;;17.80;13.13;;;;;;;;;;5053418;28;20395;-80
2020/12/28 10:31:15;;;;;;;18.00;13.35;;;;;;;;;;5053243;28;20423;-79
2020/12/28 10:33:42;;;;;;;17.50;13.05;;;;;;;;;;5049767;28;20470;-78
2020/12/28 10:36:14;;;;;;;16.85;12.02;;;;;;;;;;5051229;28;20493;-79
2020/12/28 10:38:43;;;;;;;17.75;13.05;;;;;;;;;;5076254;28;20390;-80
2020/12/28 10:41:09;;;;;;;17.85;12.18;;;;;;;;;;5054950;28;20392;-79
2020/12/28 10:43:35;;;;;;;16.60;12.05;;;;;;;;;;5073359;28;20397;-80
2020/12/28 10:46:02;;;;;;;17.77;12.43;;;;;;;;;;5050664;28;20412;-80
2020/12/28 10:48:28;;;;;;;18.70;12.10;;;;;;;;;;5066436;28;20530;-79
2020/12/28 10:50:54;;;;;;;20.65;12.32;;;;;;;;;;5068267;28;20491;-82
2020/12/28 10:53:20;;;;;;;15.02;11.02;;;;;;;;;;5067152;28;20491;-79
2020/12/28 10:55:46;;;;;;;15.53;10.97;;;;;;;;;;5047388;28;21026;-79
2020/12/28 10:58:13;;;;;;;13.80;9.07;;;;;;;;;;5047806;28;20431;-79
2020/12/28 11:00:45;;;;;;;15.57;9.40;;;;;;;;;;5071596;28;20403;-79
2020/12/28 11:03:11;;;;;;;13.38;9.15;;;;;;;;;;5057285;28;20500;-82
2020/12/28 11:05:37;;;;;;;16.25;9.10;;;;;;;;;;5068897;28;20404;-79
2020/12/28 11:08:03;;;;;;;13.63;9.05;;;;;;;;;;5072210;28;20407;-79
2020/12/28 11:10:29;;;;;;;13.40;8.60;;;;;;;;;;5049622;28;20431;-80
2020/12/28 11:12:55;;;;;;;13.38;8.35;;;;;;;;;;5069063;28;20386;-80
2020/12/28 11:15:21;;;;;;;18.23;9.15;;;;;;;;;;5053969;28;20916;-79
2020/12/28 11:17:47;;;;;;;14.50;7.90;;;;;;;;;;5070525;28;20943;-80
2020/12/28 11:20:13;;;;;;;12.50;7.55;;;;;;;;;;5057765;28;20463;-79
2020/12/28 11:22:39;;;;;;;11.67;7.43;;;;;;;;;;5048252;28;21057;-79
2020/12/28 11:25:05;;;;;;;15.25;7.65;;;;;;;;;;5046570;28;20725;-79
2020/12/28 11:27:32;;;;;;;11.80;7.10;;;;;;;;;;5052385;28;20388;-79
2020/12/28 11:29:58;;;;;;;10.07;6.57;;;;;;;;;;5048235;28;20449;-79
2020/12/28 11:32:24;;;;;;;10.50;6.35;;;;;;;;;;5066375;28;20375;-80
2020/12/28 11:34:50;;;;;;;13.05;7.43;;;;;;;;;;5048465;28;20407;-79
2020/12/28 11:37:16;;;;;;;11.43;6.53;;;;;;;;;;5048749;28;20384;-79
2020/12/28 11:39:44;;;;;;;9.77;6.50;;;;;;;;;;5048269;28;21589;-79
2020/12/28 11:42:10;;;;;;;10.45;6.40;;;;;;;;;;5048443;28;20645;-79
2020/12/28 11:44:36;;;;;;;11.38;6.22;;;;;;;;;;5051968;28;20455;-79
2020/12/28 11:47:02;;;;;;;10.82;5.85;;;;;;;;;;5071612;28;20397;-78
2020/12/28 11:49:28;;;;;;;12.23;6.00;;;;;;;;;;5048305;28;20387;-79
2020/12/28 11:51:54;;;;;;;13.05;5.72;;;;;;;;;;5066822;28;20415;-80
2020/12/28 11:54:24;;;;;;;9.82;5.30;;;;;;;;;;5064662;28;20382;-80
2020/12/28 11:56:50;;;;;;;9.48;5.57;;;;;;;;;;5063381;28;20418;-79
2020/12/28 11:59:16;;;;;;;8.77;5.20;;;;;;;;;;5065873;28;20407;-79
2020/12/28 12:01:46;;;;;;;9.95;5.13;;;;;;;;;;5051283;28;20423;-79
2020/12/28 12:04:12;;;;;;;10.60;5.13;;;;;;;;;;5051930;28;20452;-78
2020/12/28 12:06:38;;;;;;;7.22;4.10;;;;;;;;;;5048215;28;20822;-79
2020/12/28 12:09:13;;;;;;;9.10;3.53;;;;;;;;;;5046373;28;20438;-79
2020/12/28 12:11:46;;;;;;;12.48;3.40;;;;;;;;;;5063878;28;20739;-79
2020/12/28 12:14:13;;;;;;;10.27;3.73;;;;;;;;;;5046533;28;20879;-79
2020/12/28 12:16:39;;;;;;;10.23;3.63;;;;;;;;;;5059322;28;20408;-79
2020/12/28 12:19:05;;;;;;;9.97;3.90;;;;;;;;;;5065246;28;20481;-79
2020/12/28 12:21:32;;;;;;;8.23;3.85;;;;;;;;;;5047194;28;20380;-78
2020/12/28 12:23:58;;;;;;;8.07;3.47;;;;;;;;;;5047770;28;20478;-79
2020/12/28 12:26:25;;;;;;;7.23;3.10;;;;;;;;;;5034212;28;20405;-79
2020/12/28 12:29:07;;;;;;;6.68;3.40;;;;;;;;;;5066230;28;20949;-79
2020/12/28 12:31:33;;;;;;;8.02;3.22;;;;;;;;;;5047927;28;20408;-79
2020/12/28 12:33:59;;;;;;;8.48;3.42;;;;;;;;;;5047772;28;20411;-79
2020/12/28 12:36:25;;;;;;;8.23;3.30;;;;;;;;;;5064426;28;20902;-79
2020/12/28 12:38:51;;;;;;;8.52;3.80;;;;;;;;;;5066126;28;20403;-79
2020/12/28 12:41:20;;;;;;;14.30;3.95;;;;;;;;;;5047060;28;20828;-79
2020/12/28 12:43:46;;;;;;;5.57;2.93;;;;;;;;;;5067205;28;20462;-79
2020/12/28 12:46:15;;;;;;;6.03;3.08;;;;;;;;;;5065363;28;20411;-79
2020/12/28 12:48:42;;;;;;;8.48;3.03;;;;;;;;;;5049056;28;20384;-78
2020/12/28 12:51:08;;;;;;;7.18;3.13;;;;;;;;;;5047740;28;20511;-79
2020/12/28 12:53:35;;;;;;;9.63;3.92;;;;;;;;;;5074381;28;20407;-79
2020/12/28 12:56:01;;;;;;;5.72;3.03;;;;;;;;;;5050952;28;20779;-78
2020/12/28 12:58:27;;;;;;;7.57;3.05;;;;;;;;;;5048263;28;20396;-80
2020/12/28 13:00:53;;;;;;;8.23;2.70;;;;;;;;;;5048501;28;20412;-79
2020/12/28 13:03:19;;;;;;;9.93;3.20;;;;;;;;;;5049617;28;20906;-78
2020/12/28 13:05:45;;;;;;;7.00;3.10;;;;;;;;;;5067743;28;20422;-79
2020/12/28 13:08:11;;;;;;;9.13;2.85;;;;;;;;;;5057902;28;20401;-78
2020/12/28 13:10:37;;;;;;;9.02;3.20;;;;;;;;;;5053312;28;20412;-79
2020/12/28 13:13:03;;;;;;;8.95;3.05;;;;;;;;;;5076158;28;20427;-78
2020/12/28 13:15:29;;;;;;;7.03;3.53;;;;;;;;;;5071565;28;20403;-79
2020/12/28 13:17:55;;;;;;;6.55;2.90;;;;;;;;;;5070472;28;20399;-78
2020/12/28 13:20:23;;;;;;;6.55;2.70;;;;;;;;;;5053938;28;20467;-78
2020/12/28 13:22:48;;;;;;;9.65;3.13;;;;;;;;;;5071076;28;20398;-79
2020/12/28 13:25:14;;;;;;;7.63;2.87;;;;;;;;;;5073267;28;20401;-78
2020/12/28 13:27:40;;;;;;;8.10;2.88;;;;;;;;;;5069822;28;20435;-79
2020/12/28 13:30:06;;;;;;;6.63;2.75;;;;;;;;;;5074735;28;20406;-79
2020/12/28 13:32:32;;;;;;;9.90;3.20;;;;;;;;;;5070606;28;20395;-73
2020/12/28 13:34:58;;;;;;;7.45;3.05;;;;;;;;;;5065726;28;20411;-72
2020/12/28 13:37:25;;;;;;;5.83;2.73;;;;;;;;;;5048618;28;20886;-71
2020/12/28 13:39:50;;;;;;;7.45;2.90;;;;;;;;;;5069244;28;20403;-72
2020/12/28 13:42:16;;;;;;;6.90;2.80;;;;;;;;;;5072444;28;20453;-72
2020/12/28 13:44:42;;;;;;;6.80;2.90;;;;;;;;;;5068826;28;20403;-72
2020/12/28 13:47:08;;;;;;;9.25;3.10;;;;;;;;;;5053159;28;20989;-72
2020/12/28 13:49:34;;;;;;;6.30;2.53;;;;;;;;;;5076796;28;20407;-72
2020/12/28 13:52:00;;;;;;;7.45;2.80;;;;;;;;;;5070147;28;20472;-72
2020/12/28 13:54:26;;;;;;;5.90;2.60;;;;;;;;;;5077472;28;20410;-72
2020/12/28 13:56:56;;;;;;;5.93;2.90;;;;;;;;;;5068256;28;20419;-72
2020/12/28 13:59:22;;;;;;;7.60;2.97;;;;;;;;;;5075915;28;20390;-71
2020/12/28 14:01:48;;;;;;;7.23;3.00;;;;;;;;;;5075769;28;20502;-71
2020/12/28 14:04:15;;;;;;;7.80;3.17;;;;;;;;;;5080207;28;20375;-71
2020/12/28 14:06:41;;;;;;;6.78;2.88;;;;;;;;;;5071503;28;20533;-71
2020/12/28 14:09:07;;;;;;;6.67;3.00;;;;;;;;;;5088891;28;20405;-73
2020/12/28 14:11:34;;;;;;;7.05;3.00;;;;;;;;;;5082774;28;20470;-71
2020/12/28 14:14:00;;;;;;;7.35;2.65;;;;;;;;;;5053197;28;20515;-72
2020/12/28 14:16:28;;;;;;;8.52;2.85;;;;;;;;;;5081041;28;20486;-71
2020/12/28 14:18:54;;;;;;;8.02;3.10;;;;;;;;;;5050848;28;20505;-71
2020/12/28 14:21:20;;;;;;;8.52;3.58;;;;;;;;;;5072177;28;21178;-71